createdAt,value
2023-04-18T00:01:15.143Z,10.40
2023-04-18T00:03:46.001Z,10.10
2023-04-18T00:06:14.405Z,10.30
2023-04-18T00:08:42.371Z,10.60
2023-04-18T00:11:10.641Z,11.40
2023-04-18T00:13:39.548Z,11.10
2023-04-18T00:16:08.739Z,11.30
2023-04-18T00:18:37.184Z,10.50
2023-04-18T00:21:06.064Z,10.50
2023-04-18T00:23:34.477Z,9.90
2023-04-18T00:26:02.674Z,10.50
2023-04-18T00:28:30.603Z,10.10
2023-04-18T00:30:58.706Z,9.60
2023-04-18T00:33:26.766Z,9.60
2023-04-18T00:35:54.759Z,9.50
2023-04-18T00:38:22.714Z,9.00
2023-04-18T00:40:50.687Z,8.70
2023-04-18T00:43:18.739Z,8.80
2023-04-18T00:45:46.838Z,8.90
2023-04-18T00:48:14.960Z,8.90
2023-04-18T00:50:43.143Z,8.90
2023-04-18T00:53:11.224Z,8.80
2023-04-18T00:55:39.931Z,8.60
2023-04-18T00:58:08.313Z,8.80
2023-04-18T01:00:36.984Z,8.30
2023-04-18T01:03:05.183Z,8.90
2023-04-18T01:05:33.254Z,9.60
2023-04-18T01:08:01.509Z,9.20
2023-04-18T01:10:31.212Z,9.40
2023-04-18T01:13:13.518Z,9.60
2023-04-18T01:15:47.391Z,9.80
2023-04-18T01:18:17.128Z,10.60
2023-04-18T01:20:47.633Z,10.60
2023-04-18T01:23:17.269Z,10.60
2023-04-18T01:25:46.796Z,10.10
2023-04-18T01:28:15.357Z,10.00
2023-04-18T01:30:43.449Z,10.50
2023-04-18T01:33:11.507Z,10.30
2023-04-18T01:35:39.515Z,9.80
2023-04-18T01:38:07.434Z,9.70
2023-04-18T01:40:35.436Z,9.90
2023-04-18T01:43:03.406Z,9.90
2023-04-18T01:45:31.432Z,9.90
2023-04-18T01:47:59.535Z,10.00
2023-04-18T01:50:27.680Z,9.60
2023-04-18T01:52:55.671Z,10.50
2023-04-18T01:55:23.729Z,10.50
2023-04-18T01:57:51.773Z,9.80
2023-04-18T02:00:21.219Z,10.20
2023-04-18T02:02:50.598Z,10.60
2023-04-18T02:05:18.972Z,11.00
2023-04-18T02:07:47.810Z,11.00
2023-04-18T02:10:15.839Z,10.80
2023-04-18T02:12:44.191Z,11.10
2023-04-18T02:15:12.311Z,11.20
2023-04-18T02:17:42.037Z,11.10
2023-04-18T02:20:11.052Z,10.60
2023-04-18T02:22:39.705Z,10.00
2023-04-18T02:25:08.306Z,10.30
2023-04-18T02:27:36.752Z,10.20
2023-04-18T02:30:05.810Z,9.90
2023-04-18T02:32:35.139Z,10.30
2023-04-18T02:35:03.413Z,9.90
2023-04-18T02:37:31.463Z,10.00
2023-04-18T02:39:59.423Z,10.30
2023-04-18T02:42:31.559Z,9.90
2023-04-18T02:44:59.557Z,10.20
2023-04-18T02:47:28.205Z,10.70
2023-04-18T02:49:56.295Z,10.80
2023-04-18T02:52:25.590Z,10.30
2023-04-18T02:54:53.756Z,10.10
2023-04-18T02:57:26.055Z,10.80
2023-04-18T03:00:23.327Z,11.10
2023-04-18T03:03:10.670Z,11.00
2023-04-18T03:05:43.121Z,11.00
2023-04-18T03:08:11.798Z,11.40
2023-04-18T03:10:40.167Z,11.40
2023-04-18T03:13:08.813Z,11.60
2023-04-18T03:15:37.705Z,11.40
2023-04-18T03:18:06.265Z,11.20
2023-04-18T03:20:37.786Z,11.50
2023-04-18T03:23:07.937Z,11.70
2023-04-18T03:25:36.004Z,12.20
2023-04-18T03:28:04.762Z,11.80
2023-04-18T03:30:33.434Z,11.50
2023-04-18T03:33:02.920Z,11.60
2023-04-18T03:35:31.594Z,11.80
2023-04-18T03:37:59.793Z,12.30
2023-04-18T03:40:32.573Z,11.50
2023-04-18T03:43:05.659Z,11.40
2023-04-18T03:45:33.684Z,11.60
2023-04-18T03:48:01.891Z,11.20
2023-04-18T03:50:30.281Z,11.70
2023-04-18T03:52:58.533Z,11.50
2023-04-18T03:55:26.730Z,11.60
2023-04-18T03:57:55.208Z,11.30
2023-04-18T04:00:27.798Z,11.10
2023-04-18T04:03:02.038Z,11.80
2023-04-18T04:05:30.291Z,11.70
2023-04-18T04:07:58.457Z,11.50
2023-04-18T04:10:26.424Z,11.80
2023-04-18T04:12:54.410Z,12.00
2023-04-18T04:15:22.574Z,12.40
2023-04-18T04:17:55.765Z,11.90
2023-04-18T04:20:25.973Z,12.40
2023-04-18T04:23:01.421Z,12.30
2023-04-18T04:25:29.888Z,13.40
2023-04-18T04:28:01.653Z,18.50
2023-04-18T04:30:29.937Z,12.50
2023-04-18T04:32:58.453Z,12.80
2023-04-18T04:35:26.990Z,12.70
2023-04-18T04:37:54.989Z,12.50
2023-04-18T04:40:31.501Z,12.90
2023-04-18T04:43:26.147Z,12.30
2023-04-18T04:45:54.327Z,12.50
2023-04-18T04:48:25.329Z,12.30
2023-04-18T04:50:56.024Z,12.50
2023-04-18T04:53:26.434Z,12.60
2023-04-18T04:55:54.544Z,12.70
2023-04-18T04:58:23.294Z,12.10
2023-04-18T05:01:04.645Z,12.30
2023-04-18T05:03:32.954Z,12.60
2023-04-18T05:06:01.385Z,12.40
2023-04-18T05:08:29.498Z,12.20
2023-04-18T05:10:57.536Z,12.50
2023-04-18T05:13:25.455Z,12.20
2023-04-18T05:15:53.466Z,12.60
2023-04-18T05:18:21.402Z,11.60
2023-04-18T05:20:49.495Z,11.90
2023-04-18T05:23:17.423Z,12.20
2023-04-18T05:25:45.402Z,12.60
2023-04-18T05:28:13.431Z,12.40
2023-04-18T05:30:41.788Z,12.90
2023-04-18T05:33:09.853Z,12.90
2023-04-18T05:35:37.876Z,13.30
2023-04-18T05:38:06.197Z,13.00
2023-04-18T05:40:34.270Z,12.70
2023-04-18T05:43:02.231Z,12.40
2023-04-18T05:45:30.309Z,12.50
2023-04-18T05:47:58.328Z,13.20
2023-04-18T05:50:26.292Z,13.40
2023-04-18T05:52:54.263Z,13.00
2023-04-18T05:55:22.286Z,12.90
2023-04-18T05:57:50.207Z,12.70
2023-04-18T06:00:19.219Z,12.80
2023-04-18T06:02:47.363Z,12.90
2023-04-18T06:05:15.635Z,14.20
2023-04-18T06:07:43.909Z,15.50
2023-04-18T06:10:13.650Z,14.30
2023-04-18T06:12:42.366Z,14.30
2023-04-18T06:15:10.975Z,14.20
2023-04-18T06:17:39.746Z,14.20
2023-04-18T06:20:08.178Z,13.40
2023-04-18T06:22:36.179Z,13.20
2023-04-18T06:25:04.714Z,13.20
2023-04-18T06:27:32.733Z,13.20
2023-04-18T06:30:00.696Z,13.40
2023-04-18T06:32:28.713Z,12.60
2023-04-18T06:34:56.841Z,12.40
2023-04-18T06:37:25.027Z,12.60
2023-04-18T06:39:52.952Z,12.50
2023-04-18T06:42:22.595Z,12.80
2023-04-18T06:44:50.963Z,12.80
2023-04-18T06:47:18.937Z,12.30
2023-04-18T06:49:46.958Z,12.60
2023-04-18T06:52:14.881Z,12.60
2023-04-18T06:54:42.939Z,13.00
2023-04-18T06:57:11.119Z,12.90
2023-04-18T06:59:40.922Z,13.20
2023-04-18T07:02:09.037Z,13.60
2023-04-18T07:04:37.338Z,13.20
2023-04-18T07:07:05.440Z,13.40
2023-04-18T07:09:33.507Z,13.30
2023-04-18T07:12:01.463Z,13.20
2023-04-18T07:14:30.143Z,13.40
2023-04-18T07:17:01.150Z,13.10
2023-04-18T07:19:29.105Z,13.30
2023-04-18T07:21:57.237Z,13.80
2023-04-18T07:24:25.335Z,12.40
2023-04-18T07:26:55.040Z,13.40
2023-04-18T07:29:23.407Z,12.50
2023-04-18T07:31:52.181Z,12.50
2023-04-18T07:34:22.208Z,13.00
2023-04-18T07:36:50.264Z,13.00
2023-04-18T07:39:18.241Z,12.30
2023-04-18T07:41:46.333Z,11.50
2023-04-18T07:44:14.620Z,12.30
2023-04-18T07:46:42.985Z,12.40
2023-04-18T07:49:11.094Z,11.60
2023-04-18T07:51:39.310Z,12.20
2023-04-18T07:54:07.393Z,12.30
2023-04-18T07:56:35.358Z,12.30
2023-04-18T07:59:03.377Z,11.90
2023-04-18T08:01:31.724Z,12.00
2023-04-18T08:04:02.076Z,11.50
2023-04-18T08:06:30.905Z,12.50
2023-04-18T08:08:59.294Z,12.30
2023-04-18T08:11:27.607Z,10.90
2023-04-18T08:13:55.739Z,11.60
2023-04-18T08:16:23.852Z,10.90
2023-04-18T08:18:52.332Z,10.40
2023-04-18T08:21:20.556Z,10.70
2023-04-18T08:23:48.730Z,10.60
2023-04-18T08:26:16.766Z,10.30
2023-04-18T08:28:46.565Z,9.90
2023-04-18T08:31:16.474Z,9.80
2023-04-18T08:33:44.498Z,10.50
2023-04-18T08:36:12.567Z,10.60
2023-04-18T08:38:40.703Z,10.70
2023-04-18T08:41:08.878Z,10.40
2023-04-18T08:43:38.356Z,9.40
2023-04-18T08:46:06.910Z,8.70
2023-04-18T08:48:35.064Z,10.60
2023-04-18T08:51:03.226Z,9.70
2023-04-18T08:53:33.933Z,10.40
2023-04-18T08:56:03.289Z,11.40
2023-04-18T08:58:33.968Z,11.40
2023-04-18T09:01:02.647Z,9.50
2023-04-18T09:03:39.184Z,9.00
2023-04-18T09:06:18.805Z,8.80
2023-04-18T09:09:10.708Z,8.00
2023-04-18T09:11:38.647Z,8.00
2023-04-18T09:14:06.663Z,7.90
2023-04-18T09:16:50.924Z,7.20
2023-04-18T09:19:19.330Z,11.00
2023-04-18T09:21:58.418Z,11.80
2023-04-18T09:24:28.545Z,11.50
2023-04-18T09:26:58.750Z,11.20
2023-04-18T09:29:43.557Z,11.60
2023-04-18T09:32:11.563Z,11.40
2023-04-18T09:34:42.701Z,11.80
2023-04-18T09:37:13.681Z,12.50
2023-04-18T09:39:44.596Z,12.30
2023-04-18T09:42:12.858Z,11.80
2023-04-18T09:45:05.752Z,11.60
2023-04-18T09:47:36.530Z,10.70
2023-04-18T09:50:07.496Z,9.90
2023-04-18T09:52:38.011Z,11.00
2023-04-18T09:55:09.443Z,11.60
2023-04-18T09:57:41.855Z,11.50
2023-04-18T10:00:20.491Z,12.10
2023-04-18T10:02:59.957Z,12.50
2023-04-18T10:05:33.917Z,11.50
2023-04-18T10:08:02.614Z,10.80
2023-04-18T10:10:30.981Z,12.60
2023-04-18T10:13:01.505Z,13.00
2023-04-18T10:15:30.898Z,12.80
2023-04-18T10:18:09.263Z,12.40
2023-04-18T10:20:37.222Z,12.60
2023-04-18T10:23:36.288Z,12.30
2023-04-18T10:26:06.295Z,12.50
2023-04-18T10:28:57.477Z,12.10
2023-04-18T10:31:29.573Z,13.00
2023-04-18T10:36:30.458Z,12.30
2023-04-18T10:39:20.139Z,12.10
2023-04-18T10:41:50.726Z,12.10
2023-04-18T10:44:23.726Z,12.40
2023-04-18T10:46:52.116Z,12.50
2023-04-18T10:49:24.029Z,12.90
2023-04-18T10:51:59.469Z,12.60
2023-04-18T10:54:28.706Z,13.00
2023-04-18T10:56:58.703Z,13.10
2023-04-18T10:59:28.947Z,13.40
2023-04-18T11:02:03.869Z,13.70
2023-04-18T11:04:32.095Z,13.50
2023-04-18T11:07:00.336Z,13.40
2023-04-18T11:09:28.345Z,13.10
2023-04-18T11:12:10.787Z,13.10
2023-04-18T11:14:43.389Z,12.90
2023-04-18T11:17:22.094Z,12.40
2023-04-18T11:19:51.722Z,12.60
2023-04-18T11:22:19.683Z,14.00
2023-04-18T11:24:47.847Z,14.00
2023-04-18T11:27:16.273Z,13.30
2023-04-18T11:29:44.314Z,14.00
2023-04-18T11:32:12.742Z,13.00
2023-04-18T11:34:41.151Z,13.80
2023-04-18T11:37:09.197Z,13.80
2023-04-18T11:39:44.258Z,13.90
2023-04-18T11:42:12.634Z,14.30
2023-04-18T11:44:44.090Z,14.00
2023-04-18T11:47:25.008Z,13.70
2023-04-18T11:49:57.630Z,14.70
2023-04-18T11:52:31.460Z,14.50
2023-04-18T11:55:25.019Z,14.40
2023-04-18T11:57:57.171Z,14.20
2023-04-18T12:00:44.783Z,14.90
2023-04-18T12:03:17.345Z,14.60
2023-04-18T12:05:45.873Z,13.90
2023-04-18T12:08:23.152Z,14.00
2023-04-18T12:10:52.501Z,14.40
2023-04-18T12:13:31.646Z,14.60
2023-04-18T12:16:02.316Z,14.20
2023-04-18T12:18:31.719Z,14.30
2023-04-18T12:21:02.469Z,14.20
2023-04-18T12:23:35.625Z,14.10
2023-04-18T12:26:08.610Z,14.40
2023-04-18T12:28:36.790Z,14.10
2023-04-18T12:31:08.360Z,13.80
2023-04-18T12:33:36.874Z,14.10
2023-04-18T12:36:06.192Z,14.10
2023-04-18T12:38:35.516Z,13.90
2023-04-18T12:41:03.900Z,14.00
2023-04-18T12:43:32.061Z,14.10
2023-04-18T12:46:00.149Z,14.10
2023-04-18T12:48:28.382Z,14.70
2023-04-18T12:50:56.441Z,13.70
2023-04-18T12:53:24.550Z,13.20
2023-04-18T12:55:52.916Z,13.60
2023-04-18T12:58:21.660Z,12.80
2023-04-18T13:00:49.968Z,13.00
2023-04-18T13:03:18.192Z,13.60
2023-04-18T13:05:46.548Z,13.20
2023-04-18T13:08:17.773Z,13.40
2023-04-18T13:10:47.765Z,13.00
2023-04-18T13:13:16.143Z,12.60
2023-04-18T13:15:44.329Z,12.10
2023-04-18T13:18:12.499Z,12.50
2023-04-18T13:20:40.735Z,12.80
2023-04-18T13:23:08.882Z,12.60
2023-04-18T13:25:36.945Z,12.10
2023-04-18T13:28:05.564Z,12.50
2023-04-18T13:30:35.872Z,12.20
2023-04-18T13:33:04.316Z,16.80
2023-04-18T13:35:32.301Z,12.60
2023-04-18T13:38:00.410Z,11.60
2023-04-18T13:40:28.751Z,11.80
2023-04-18T13:42:59.493Z,12.80
2023-04-18T13:45:27.788Z,11.40
2023-04-18T13:47:56.260Z,11.50
2023-04-18T13:50:24.656Z,11.30
2023-04-18T13:52:54.653Z,10.10
2023-04-18T13:55:23.053Z,10.00
2023-04-18T13:57:51.353Z,10.30
2023-04-18T14:00:20.624Z,10.20
2023-04-18T14:02:49.738Z,9.40
2023-04-18T14:05:18.016Z,9.80
2023-04-18T14:07:46.026Z,9.80
2023-04-18T14:10:14.182Z,9.60
2023-04-18T14:12:48.320Z,9.40
2023-04-18T14:18:55.416Z,9.60
2023-04-18T14:21:23.582Z,9.50
2023-04-18T14:23:52.738Z,9.10
2023-04-18T14:26:21.514Z,9.30
2023-04-18T14:28:49.604Z,9.10
2023-04-18T14:31:17.570Z,9.30
2023-04-18T14:33:46.509Z,8.60
2023-04-18T14:36:17.340Z,8.60
2023-04-18T14:38:49.598Z,8.30
2023-04-18T14:41:17.642Z,8.30
2023-04-18T14:43:45.843Z,8.70
2023-04-18T14:46:16.676Z,8.30
2023-04-18T14:48:46.618Z,7.50
2023-04-18T14:51:16.201Z,7.90
2023-04-18T14:53:45.052Z,8.40
2023-04-18T14:56:13.055Z,8.00
2023-04-18T14:58:41.151Z,8.20
2023-04-18T15:01:09.200Z,8.00
2023-04-18T15:03:37.348Z,8.40
2023-04-18T15:06:05.718Z,8.70
2023-04-18T15:08:34.650Z,8.00
2023-04-18T15:11:07.620Z,7.90
2023-04-18T15:13:36.919Z,8.60
2023-04-18T15:16:05.403Z,8.20
2023-04-18T15:18:33.463Z,8.40
2023-04-18T15:21:01.684Z,8.20
2023-04-18T15:23:29.720Z,8.40
2023-04-18T15:25:57.781Z,9.20
2023-04-18T15:28:26.160Z,8.80
2023-04-18T15:30:54.542Z,8.40
2023-04-18T15:33:25.263Z,8.80
2023-04-18T15:35:55.871Z,8.10
2023-04-18T15:38:23.823Z,8.80
2023-04-18T15:40:51.899Z,8.10
2023-04-18T15:43:20.305Z,8.90
2023-04-18T15:45:49.205Z,8.60
2023-04-18T15:48:17.357Z,8.40
2023-04-18T15:50:51.298Z,8.60
2023-04-18T15:53:19.926Z,8.80
2023-04-18T15:55:47.895Z,9.20
2023-04-18T15:58:15.936Z,8.30
2023-04-18T16:00:44.505Z,8.70
2023-04-18T16:03:12.716Z,9.70
2023-04-18T16:05:40.838Z,9.20
2023-04-18T16:08:09.539Z,9.40
2023-04-18T16:10:38.214Z,8.50
2023-04-18T16:13:06.888Z,7.10
2023-04-18T16:15:35.981Z,7.40
2023-04-18T16:18:04.486Z,7.10
2023-04-18T16:20:33.509Z,7.00
2023-04-18T16:23:01.534Z,7.10
2023-04-18T16:25:29.490Z,6.80
2023-04-18T16:27:57.572Z,6.70
2023-04-18T16:30:25.528Z,6.40
2023-04-18T16:32:54.487Z,7.40
2023-04-18T16:35:22.666Z,6.80
2023-04-18T16:37:50.837Z,7.10
2023-04-18T16:40:18.779Z,7.10
2023-04-18T16:42:47.123Z,6.20
2023-04-18T16:45:15.162Z,5.50
2023-04-18T16:47:43.104Z,5.70
2023-04-18T16:50:11.398Z,6.00
2023-04-18T16:52:39.814Z,5.80
2023-04-18T16:55:08.118Z,6.30
2023-04-18T16:57:36.063Z,6.60
2023-04-18T17:00:05.150Z,7.30
2023-04-18T17:02:33.302Z,7.60
2023-04-18T17:05:01.519Z,6.40
2023-04-18T17:07:30.493Z,6.20
2023-04-18T17:09:58.658Z,5.90
2023-04-18T17:12:27.350Z,5.80
2023-04-18T17:14:55.332Z,5.90
2023-04-18T17:17:24.156Z,5.80
2023-04-18T17:19:52.173Z,5.40
2023-04-18T17:22:20.136Z,5.70
2023-04-18T17:24:48.126Z,5.80
2023-04-18T17:27:16.176Z,6.00
2023-04-18T17:29:44.152Z,6.20
2023-04-18T17:32:12.253Z,6.20
2023-04-18T17:34:40.291Z,5.30
2023-04-18T17:37:08.248Z,5.80
2023-04-18T17:39:36.219Z,6.20
2023-04-18T17:42:04.297Z,6.50
2023-04-18T17:44:32.301Z,5.90
2023-04-18T17:47:01.116Z,5.80
2023-04-18T17:49:34.677Z,5.70
2023-04-18T17:52:04.367Z,5.60
2023-04-18T17:54:32.837Z,5.30
2023-04-18T17:57:02.192Z,5.40
2023-04-18T17:59:30.613Z,5.60
2023-04-18T18:01:59.664Z,5.80
2023-04-18T18:04:28.014Z,5.70
2023-04-18T18:06:57.087Z,5.80
2023-04-18T18:09:25.317Z,5.70
2023-04-18T18:11:55.821Z,5.70
2023-04-18T18:14:24.466Z,5.90
2023-04-18T18:16:53.021Z,5.60
2023-04-18T18:19:21.128Z,5.90
2023-04-18T18:21:49.396Z,5.10
2023-04-18T18:24:18.790Z,5.40
2023-04-18T18:26:46.922Z,6.00
2023-04-18T18:29:14.970Z,5.80
2023-04-18T18:31:43.220Z,5.80
2023-04-18T18:34:11.570Z,6.50
2023-04-18T18:36:40.230Z,6.20
2023-04-18T18:39:08.306Z,6.10
2023-04-18T18:41:36.436Z,5.30
2023-04-18T18:44:04.490Z,5.10
2023-04-18T18:46:32.519Z,5.40
2023-04-18T18:49:00.513Z,5.20
2023-04-18T18:51:29.292Z,5.50
2023-04-18T18:53:57.388Z,5.10
2023-04-18T18:56:25.450Z,5.20
2023-04-18T18:58:55.664Z,5.90
2023-04-18T19:01:24.219Z,5.70
2023-04-18T19:03:52.623Z,5.90
2023-04-18T19:06:20.807Z,5.50
2023-04-18T19:08:48.748Z,5.30
2023-04-18T19:11:18.322Z,5.20
2023-04-18T19:13:46.351Z,5.30
2023-04-18T19:16:14.334Z,4.70
2023-04-18T19:18:47.072Z,5.20
2023-04-18T19:21:16.059Z,5.40
2023-04-18T19:23:44.073Z,5.60
2023-04-18T19:26:12.130Z,6.20
2023-04-18T19:28:40.388Z,6.50
2023-04-18T19:31:09.674Z,5.30
2023-04-18T19:33:38.356Z,5.30
2023-04-18T19:36:06.361Z,5.20
2023-04-18T19:38:34.939Z,4.60
2023-04-18T19:41:02.900Z,5.10
2023-04-18T19:43:30.879Z,5.20
2023-04-18T19:45:59.340Z,5.60
2023-04-18T19:48:27.298Z,6.10
2023-04-18T19:50:56.580Z,5.40
2023-04-18T19:53:24.795Z,5.40
2023-04-18T19:55:55.018Z,5.00
2023-04-18T19:58:49.530Z,4.50
2023-04-18T20:01:19.281Z,5.10
2023-04-18T20:03:48.324Z,4.60
2023-04-18T20:06:18.229Z,4.80
2023-04-18T20:08:46.309Z,4.90
2023-04-18T20:11:14.569Z,4.90
2023-04-18T20:13:42.892Z,4.60
2023-04-18T20:16:12.451Z,4.10
2023-04-18T20:18:41.768Z,4.10
2023-04-18T20:21:10.964Z,3.80
2023-04-18T20:23:41.801Z,3.60
2023-04-18T20:26:10.170Z,3.90
2023-04-18T20:28:38.114Z,3.70
2023-04-18T20:31:06.260Z,4.00
2023-04-18T20:33:34.675Z,3.90
2023-04-18T20:36:02.645Z,4.00
2023-04-18T20:38:30.721Z,4.20
2023-04-18T20:40:59.047Z,4.20
2023-04-18T20:43:28.119Z,4.10
2023-04-18T20:45:57.922Z,4.30
2023-04-18T20:48:26.193Z,4.20
2023-04-18T20:50:54.243Z,4.10
2023-04-18T20:53:25.292Z,4.10
2023-04-18T20:55:53.356Z,4.20
2023-04-18T20:58:21.431Z,4.40
2023-04-18T21:00:49.653Z,3.80
2023-04-18T21:03:17.704Z,4.10
2023-04-18T21:05:45.956Z,4.40
2023-04-18T21:08:14.553Z,4.70
2023-04-18T21:10:42.605Z,4.50
2023-04-18T21:13:12.755Z,4.30
2023-04-18T21:15:42.389Z,4.40
2023-04-18T21:18:10.810Z,4.30
2023-04-18T21:20:38.824Z,4.30
2023-04-18T21:23:06.844Z,4.70
2023-04-18T21:25:35.191Z,4.50
2023-04-18T21:28:03.196Z,3.90
2023-04-18T21:30:31.366Z,4.30
2023-04-18T21:32:59.411Z,4.10
2023-04-18T21:35:29.900Z,4.20
2023-04-18T21:37:58.212Z,4.00
2023-04-18T21:40:27.017Z,4.20
2023-04-18T21:42:54.993Z,4.20
2023-04-18T21:45:23.233Z,4.10
2023-04-18T21:47:52.640Z,4.30
2023-04-18T21:50:20.861Z,4.60
2023-04-18T21:52:48.810Z,4.50
2023-04-18T21:55:17.901Z,4.20
2023-04-18T21:57:45.973Z,4.20
2023-04-18T22:00:14.310Z,4.40
2023-04-18T22:02:42.337Z,4.60
2023-04-18T22:05:12.979Z,4.60
2023-04-18T22:07:54.393Z,4.40
2023-04-18T22:10:25.749Z,4.40
2023-04-18T22:12:58.564Z,4.40
2023-04-18T22:15:30.679Z,4.60
2023-04-18T22:17:59.271Z,4.80
2023-04-18T22:20:27.290Z,4.40
2023-04-18T22:22:55.311Z,4.20
2023-04-18T22:25:23.345Z,4.80
2023-04-18T22:27:51.286Z,4.60
2023-04-18T22:30:19.234Z,4.50
2023-04-18T22:32:47.780Z,4.20
2023-04-18T22:35:16.062Z,4.50
2023-04-18T22:37:44.112Z,4.40
2023-04-18T22:40:13.078Z,4.40
2023-04-18T22:42:41.007Z,4.10
2023-04-18T22:45:09.532Z,4.60
2023-04-18T22:47:37.554Z,4.50
2023-04-18T22:50:06.363Z,4.50
2023-04-18T22:52:34.958Z,4.70
2023-04-18T22:55:03.491Z,4.90
2023-04-18T22:57:31.522Z,4.30
2023-04-18T22:59:59.522Z,4.60
2023-04-18T23:02:27.777Z,4.60
2023-04-18T23:04:59.203Z,5.20
2023-04-18T23:07:27.111Z,4.60
2023-04-18T23:09:55.081Z,5.20
2023-04-18T23:12:23.116Z,5.10
2023-04-18T23:14:51.157Z,6.00
2023-04-18T23:17:19.157Z,5.80
2023-04-18T23:19:47.230Z,6.50
2023-04-18T23:22:15.207Z,5.70
2023-04-18T23:24:43.128Z,7.10
2023-04-18T23:27:11.129Z,6.90
2023-04-18T23:29:39.626Z,6.20
2023-04-18T23:32:07.709Z,5.80
2023-04-18T23:34:35.752Z,5.90
2023-04-18T23:37:03.740Z,5.80
2023-04-18T23:39:31.706Z,6.10
2023-04-18T23:41:59.671Z,6.60
2023-04-18T23:44:27.680Z,6.30
2023-04-18T23:46:55.742Z,5.90
2023-04-18T23:49:23.962Z,6.60
2023-04-18T23:51:51.863Z,6.80
2023-04-18T23:54:19.905Z,7.60
2023-04-18T23:56:47.821Z,8.20
2023-04-18T23:59:15.842Z,9.30
